sensor_id;sensor_type;location;lat;lon;timestamp;P1;durP1;ratioP1;P2;durP2;ratioP2
19919;SDS011;10122;50.074;19.920;2022-10-28T00:01:06;29.08;;;17.48;;
19919;SDS011;10122;50.074;19.920;2022-10-28T00:03:41;28.67;;;17.25;;
19919;SDS011;10122;50.074;19.920;2022-10-28T00:06:10;29.77;;;17.48;;
19919;SDS011;10122;50.074;19.920;2022-10-28T00:08:38;27.08;;;16.88;;
19919;SDS011;10122;50.074;19.920;2022-10-28T00:11:08;28.13;;;16.98;;
19919;SDS011;10122;50.074;19.920;2022-10-28T00:13:36;29.48;;;16.98;;
19919;SDS011;10122;50.074;19.920;2022-10-28T00:16:03;28.13;;;16.98;;
19919;SDS011;10122;50.074;19.920;2022-10-28T00:18:34;30.13;;;16.73;;
19919;SDS011;10122;50.074;19.920;2022-10-28T00:21:00;26.52;;;16.40;;
19919;SDS011;10122;50.074;19.920;2022-10-28T00:23:30;28.85;;;16.73;;
19919;SDS011;10122;50.074;19.920;2022-10-28T00:26:02;30.80;;;17.75;;
19919;SDS011;10122;50.074;19.920;2022-10-28T00:28:39;28.88;;;17.92;;
19919;SDS011;10122;50.074;19.920;2022-10-28T00:31:10;29.35;;;18.15;;
19919;SDS011;10122;50.074;19.920;2022-10-28T00:33:37;28.15;;;17.65;;
19919;SDS011;10122;50.074;19.920;2022-10-28T00:36:06;34.10;;;18.92;;
19919;SDS011;10122;50.074;19.920;2022-10-28T00:38:33;29.55;;;18.27;;
19919;SDS011;10122;50.074;19.920;2022-10-28T00:40:58;29.20;;;17.85;;
19919;SDS011;10122;50.074;19.920;2022-10-28T00:43:40;29.77;;;17.23;;
19919;SDS011;10122;50.074;19.920;2022-10-28T00:48:54;32.13;;;19.08;;
19919;SDS011;10122;50.074;19.920;2022-10-28T00:51:38;34.70;;;19.63;;
19919;SDS011;10122;50.074;19.920;2022-10-28T00:54:06;34.75;;;19.77;;
19919;SDS011;10122;50.074;19.920;2022-10-28T00:56:33;30.35;;;18.27;;
19919;SDS011;10122;50.074;19.920;2022-10-28T00:59:03;29.80;;;18.90;;
19919;SDS011;10122;50.074;19.920;2022-10-28T01:01:32;30.27;;;18.75;;
19919;SDS011;10122;50.074;19.920;2022-10-28T01:03:58;39.08;;;21.60;;
19919;SDS011;10122;50.074;19.920;2022-10-28T01:06:25;35.28;;;20.17;;
19919;SDS011;10122;50.074;19.920;2022-10-28T01:08:52;37.95;;;21.50;;
19919;SDS011;10122;50.074;19.920;2022-10-28T01:23:00;33.60;;;19.42;;
19919;SDS011;10122;50.074;19.920;2022-10-28T01:28:35;36.97;;;19.45;;
19919;SDS011;10122;50.074;19.920;2022-10-28T01:39:08;35.60;;;18.90;;
19919;SDS011;10122;50.074;19.920;2022-10-28T01:41:53;40.47;;;20.30;;
19919;SDS011;10122;50.074;19.920;2022-10-28T01:44:36;37.42;;;19.50;;
19919;SDS011;10122;50.074;19.920;2022-10-28T01:47:15;33.30;;;17.92;;
19919;SDS011;10122;50.074;19.920;2022-10-28T01:50:01;32.83;;;17.95;;
19919;SDS011;10122;50.074;19.920;2022-10-28T01:52:31;31.83;;;17.75;;
19919;SDS011;10122;50.074;19.920;2022-10-28T01:55:01;30.35;;;17.60;;
19919;SDS011;10122;50.074;19.920;2022-10-28T01:57:48;31.13;;;17.67;;
19919;SDS011;10122;50.074;19.920;2022-10-28T02:00:16;27.80;;;17.73;;
19919;SDS011;10122;50.074;19.920;2022-10-28T02:02:42;31.17;;;18.00;;
19919;SDS011;10122;50.074;19.920;2022-10-28T02:13:27;29.05;;;17.48;;
19919;SDS011;10122;50.074;19.920;2022-10-28T02:16:17;29.02;;;16.77;;
19919;SDS011;10122;50.074;19.920;2022-10-28T02:27:20;36.85;;;19.60;;
19919;SDS011;10122;50.074;19.920;2022-10-28T02:30:07;37.28;;;19.95;;
19919;SDS011;10122;50.074;19.920;2022-10-28T02:32:41;36.17;;;20.33;;
19919;SDS011;10122;50.074;19.920;2022-10-28T02:35:13;32.15;;;18.48;;
19919;SDS011;10122;50.074;19.920;2022-10-28T02:37:42;33.53;;;18.73;;
19919;SDS011;10122;50.074;19.920;2022-10-28T02:40:14;37.75;;;19.42;;
19919;SDS011;10122;50.074;19.920;2022-10-28T02:42:49;35.75;;;20.15;;
19919;SDS011;10122;50.074;19.920;2022-10-28T02:45:30;37.35;;;20.45;;
19919;SDS011;10122;50.074;19.920;2022-10-28T02:48:05;38.42;;;20.08;;
19919;SDS011;10122;50.074;19.920;2022-10-28T02:50:35;42.85;;;21.83;;
19919;SDS011;10122;50.074;19.920;2022-10-28T02:53:07;40.28;;;21.48;;
19919;SDS011;10122;50.074;19.920;2022-10-28T02:55:38;36.90;;;19.88;;
19919;SDS011;10122;50.074;19.920;2022-10-28T02:58:08;37.15;;;18.92;;
19919;SDS011;10122;50.074;19.920;2022-10-28T03:00:35;36.22;;;18.95;;
19919;SDS011;10122;50.074;19.920;2022-10-28T03:03:00;33.50;;;18.30;;
19919;SDS011;10122;50.074;19.920;2022-10-28T03:05:26;34.30;;;18.83;;
19919;SDS011;10122;50.074;19.920;2022-10-28T03:07:52;33.58;;;18.25;;
19919;SDS011;10122;50.074;19.920;2022-10-28T03:10:17;34.95;;;18.73;;
19919;SDS011;10122;50.074;19.920;2022-10-28T03:12:44;34.00;;;18.05;;
19919;SDS011;10122;50.074;19.920;2022-10-28T03:15:09;35.58;;;18.13;;
19919;SDS011;10122;50.074;19.920;2022-10-28T03:17:35;34.17;;;17.90;;
19919;SDS011;10122;50.074;19.920;2022-10-28T03:20:01;32.90;;;18.00;;
19919;SDS011;10122;50.074;19.920;2022-10-28T03:22:27;28.98;;;16.80;;
19919;SDS011;10122;50.074;19.920;2022-10-28T03:24:52;34.30;;;17.77;;
19919;SDS011;10122;50.074;19.920;2022-10-28T03:27:18;32.67;;;18.27;;
19919;SDS011;10122;50.074;19.920;2022-10-28T03:29:43;34.63;;;18.10;;
19919;SDS011;10122;50.074;19.920;2022-10-28T03:32:09;33.92;;;18.20;;
19919;SDS011;10122;50.074;19.920;2022-10-28T03:34:35;32.50;;;17.67;;
19919;SDS011;10122;50.074;19.920;2022-10-28T03:37:00;31.67;;;17.50;;
19919;SDS011;10122;50.074;19.920;2022-10-28T03:39:26;29.52;;;17.15;;
19919;SDS011;10122;50.074;19.920;2022-10-28T03:41:52;32.75;;;18.20;;
19919;SDS011;10122;50.074;19.920;2022-10-28T03:44:17;31.35;;;17.55;;
19919;SDS011;10122;50.074;19.920;2022-10-28T03:46:43;34.97;;;18.20;;
19919;SDS011;10122;50.074;19.920;2022-10-28T03:49:09;32.50;;;17.42;;
19919;SDS011;10122;50.074;19.920;2022-10-28T03:51:34;34.50;;;18.23;;
19919;SDS011;10122;50.074;19.920;2022-10-28T03:54:00;32.35;;;17.92;;
19919;SDS011;10122;50.074;19.920;2022-10-28T03:56:26;40.10;;;20.02;;
19919;SDS011;10122;50.074;19.920;2022-10-28T03:58:51;35.20;;;20.10;;
19919;SDS011;10122;50.074;19.920;2022-10-28T04:01:17;34.25;;;19.35;;
19919;SDS011;10122;50.074;19.920;2022-10-28T04:03:43;39.30;;;20.02;;
19919;SDS011;10122;50.074;19.920;2022-10-28T04:06:08;38.83;;;19.52;;
19919;SDS011;10122;50.074;19.920;2022-10-28T04:08:34;41.10;;;21.00;;
19919;SDS011;10122;50.074;19.920;2022-10-28T04:11:01;36.92;;;20.55;;
19919;SDS011;10122;50.074;19.920;2022-10-28T04:13:27;39.40;;;19.88;;
19919;SDS011;10122;50.074;19.920;2022-10-28T04:15:52;37.33;;;19.33;;
19919;SDS011;10122;50.074;19.920;2022-10-28T04:18:18;42.13;;;20.73;;
19919;SDS011;10122;50.074;19.920;2022-10-28T04:20:44;37.08;;;20.17;;
19919;SDS011;10122;50.074;19.920;2022-10-28T04:23:14;39.25;;;21.05;;
19919;SDS011;10122;50.074;19.920;2022-10-28T04:25:41;37.35;;;20.80;;
19919;SDS011;10122;50.074;19.920;2022-10-28T04:28:07;39.65;;;21.23;;
19919;SDS011;10122;50.074;19.920;2022-10-28T04:30:32;39.38;;;20.33;;
19919;SDS011;10122;50.074;19.920;2022-10-28T04:32:58;40.17;;;20.73;;
19919;SDS011;10122;50.074;19.920;2022-10-28T04:35:24;37.60;;;20.80;;
19919;SDS011;10122;50.074;19.920;2022-10-28T04:37:49;41.10;;;20.77;;
19919;SDS011;10122;50.074;19.920;2022-10-28T04:40:15;39.60;;;20.73;;
19919;SDS011;10122;50.074;19.920;2022-10-28T04:42:41;42.22;;;21.15;;
19919;SDS011;10122;50.074;19.920;2022-10-28T04:45:07;39.97;;;21.58;;
19919;SDS011;10122;50.074;19.920;2022-10-28T04:47:33;39.22;;;20.38;;
19919;SDS011;10122;50.074;19.920;2022-10-28T04:49:59;38.53;;;20.00;;
19919;SDS011;10122;50.074;19.920;2022-10-28T04:52:24;37.13;;;20.15;;
19919;SDS011;10122;50.074;19.920;2022-10-28T04:54:50;41.45;;;21.63;;
19919;SDS011;10122;50.074;19.920;2022-10-28T04:57:16;39.13;;;20.60;;
19919;SDS011;10122;50.074;19.920;2022-10-28T04:59:42;41.38;;;20.67;;
19919;SDS011;10122;50.074;19.920;2022-10-28T05:02:07;40.85;;;20.60;;
19919;SDS011;10122;50.074;19.920;2022-10-28T05:04:33;41.95;;;21.35;;
19919;SDS011;10122;50.074;19.920;2022-10-28T05:06:59;43.30;;;20.92;;
19919;SDS011;10122;50.074;19.920;2022-10-28T05:09:24;38.60;;;20.35;;
19919;SDS011;10122;50.074;19.920;2022-10-28T05:11:50;43.65;;;20.70;;
19919;SDS011;10122;50.074;19.920;2022-10-28T05:14:16;39.30;;;20.23;;
19919;SDS011;10122;50.074;19.920;2022-10-28T05:16:41;38.17;;;20.88;;
19919;SDS011;10122;50.074;19.920;2022-10-28T05:19:07;36.42;;;20.00;;
19919;SDS011;10122;50.074;19.920;2022-10-28T05:21:33;38.33;;;19.83;;
19919;SDS011;10122;50.074;19.920;2022-10-28T05:23:58;37.78;;;20.20;;
19919;SDS011;10122;50.074;19.920;2022-10-28T05:26:24;37.05;;;20.17;;
19919;SDS011;10122;50.074;19.920;2022-10-28T05:28:50;33.63;;;18.75;;
19919;SDS011;10122;50.074;19.920;2022-10-28T05:31:16;36.35;;;20.45;;
19919;SDS011;10122;50.074;19.920;2022-10-28T05:33:42;36.08;;;19.48;;
19919;SDS011;10122;50.074;19.920;2022-10-28T05:36:07;36.05;;;19.13;;
19919;SDS011;10122;50.074;19.920;2022-10-28T05:38:33;34.95;;;19.15;;
19919;SDS011;10122;50.074;19.920;2022-10-28T05:40:59;32.67;;;19.05;;
19919;SDS011;10122;50.074;19.920;2022-10-28T05:43:25;33.50;;;18.52;;
19919;SDS011;10122;50.074;19.920;2022-10-28T05:45:51;36.65;;;19.20;;
19919;SDS011;10122;50.074;19.920;2022-10-28T05:48:17;35.90;;;19.60;;
19919;SDS011;10122;50.074;19.920;2022-10-28T05:50:43;35.25;;;19.17;;
19919;SDS011;10122;50.074;19.920;2022-10-28T05:53:08;36.40;;;19.02;;
19919;SDS011;10122;50.074;19.920;2022-10-28T05:55:34;36.47;;;19.02;;
19919;SDS011;10122;50.074;19.920;2022-10-28T05:58:00;32.88;;;19.67;;
19919;SDS011;10122;50.074;19.920;2022-10-28T06:00:27;33.92;;;19.00;;
19919;SDS011;10122;50.074;19.920;2022-10-28T06:03:00;34.75;;;18.70;;
19919;SDS011;10122;50.074;19.920;2022-10-28T06:05:33;34.13;;;18.77;;
19919;SDS011;10122;50.074;19.920;2022-10-28T06:07:59;33.33;;;18.75;;
19919;SDS011;10122;50.074;19.920;2022-10-28T06:10:25;36.25;;;19.55;;
19919;SDS011;10122;50.074;19.920;2022-10-28T06:12:53;35.85;;;19.15;;
19919;SDS011;10122;50.074;19.920;2022-10-28T06:15:20;37.60;;;19.70;;
19919;SDS011;10122;50.074;19.920;2022-10-28T06:17:48;36.75;;;19.63;;
19919;SDS011;10122;50.074;19.920;2022-10-28T06:20:15;34.65;;;19.42;;
19919;SDS011;10122;50.074;19.920;2022-10-28T06:22:51;33.65;;;18.08;;
19919;SDS011;10122;50.074;19.920;2022-10-28T06:25:19;33.55;;;18.10;;
19919;SDS011;10122;50.074;19.920;2022-10-28T06:27:50;34.88;;;17.98;;
19919;SDS011;10122;50.074;19.920;2022-10-28T06:30:17;29.85;;;17.42;;
19919;SDS011;10122;50.074;19.920;2022-10-28T06:32:43;36.30;;;18.17;;
19919;SDS011;10122;50.074;19.920;2022-10-28T06:35:08;29.90;;;18.02;;
19919;SDS011;10122;50.074;19.920;2022-10-28T06:37:34;30.67;;;17.45;;
19919;SDS011;10122;50.074;19.920;2022-10-28T06:40:00;32.42;;;17.73;;
19919;SDS011;10122;50.074;19.920;2022-10-28T06:42:25;30.65;;;17.73;;
19919;SDS011;10122;50.074;19.920;2022-10-28T06:44:51;34.22;;;18.50;;
19919;SDS011;10122;50.074;19.920;2022-10-28T06:47:18;37.20;;;18.35;;
19919;SDS011;10122;50.074;19.920;2022-10-28T06:49:44;33.92;;;18.17;;
19919;SDS011;10122;50.074;19.920;2022-10-28T06:52:10;34.58;;;18.77;;
19919;SDS011;10122;50.074;19.920;2022-10-28T06:54:36;35.58;;;18.25;;
19919;SDS011;10122;50.074;19.920;2022-10-28T06:57:01;32.88;;;17.73;;
19919;SDS011;10122;50.074;19.920;2022-10-28T06:59:27;38.50;;;18.65;;
19919;SDS011;10122;50.074;19.920;2022-10-28T07:01:52;30.92;;;17.70;;
19919;SDS011;10122;50.074;19.920;2022-10-28T07:04:18;33.47;;;18.00;;
19919;SDS011;10122;50.074;19.920;2022-10-28T07:06:44;30.75;;;17.45;;
19919;SDS011;10122;50.074;19.920;2022-10-28T07:09:12;29.42;;;17.05;;
19919;SDS011;10122;50.074;19.920;2022-10-28T07:11:39;30.17;;;17.63;;
19919;SDS011;10122;50.074;19.920;2022-10-28T07:14:07;33.65;;;18.30;;
19919;SDS011;10122;50.074;19.920;2022-10-28T07:16:34;30.75;;;16.75;;
19919;SDS011;10122;50.074;19.920;2022-10-28T07:19:00;30.13;;;17.15;;
19919;SDS011;10122;50.074;19.920;2022-10-28T07:21:25;27.40;;;16.38;;
19919;SDS011;10122;50.074;19.920;2022-10-28T07:23:56;25.73;;;15.60;;
19919;SDS011;10122;50.074;19.920;2022-10-28T07:26:22;23.73;;;15.05;;
19919;SDS011;10122;50.074;19.920;2022-10-28T07:28:48;23.48;;;15.10;;
19919;SDS011;10122;50.074;19.920;2022-10-28T07:31:14;24.98;;;15.15;;
19919;SDS011;10122;50.074;19.920;2022-10-28T07:33:40;23.52;;;15.10;;
19919;SDS011;10122;50.074;19.920;2022-10-28T07:36:06;24.50;;;15.18;;
19919;SDS011;10122;50.074;19.920;2022-10-28T07:38:32;22.88;;;13.88;;
19919;SDS011;10122;50.074;19.920;2022-10-28T07:41:02;24.33;;;14.30;;
19919;SDS011;10122;50.074;19.920;2022-10-28T07:43:34;22.50;;;13.68;;
19919;SDS011;10122;50.074;19.920;2022-10-28T07:46:04;22.08;;;13.57;;
19919;SDS011;10122;50.074;19.920;2022-10-28T07:48:30;27.33;;;14.38;;
19919;SDS011;10122;50.074;19.920;2022-10-28T07:50:58;21.65;;;13.38;;
19919;SDS011;10122;50.074;19.920;2022-10-28T07:53:25;21.15;;;13.38;;
19919;SDS011;10122;50.074;19.920;2022-10-28T07:55:58;21.88;;;13.30;;
19919;SDS011;10122;50.074;19.920;2022-10-28T07:58:26;20.25;;;12.77;;
19919;SDS011;10122;50.074;19.920;2022-10-28T08:00:52;18.80;;;12.40;;
19919;SDS011;10122;50.074;19.920;2022-10-28T08:03:18;17.95;;;12.10;;
19919;SDS011;10122;50.074;19.920;2022-10-28T08:05:44;19.88;;;12.30;;
19919;SDS011;10122;50.074;19.920;2022-10-28T08:08:09;17.55;;;11.48;;
19919;SDS011;10122;50.074;19.920;2022-10-28T08:10:35;18.38;;;11.55;;
19919;SDS011;10122;50.074;19.920;2022-10-28T08:13:01;18.80;;;11.45;;
19919;SDS011;10122;50.074;19.920;2022-10-28T08:15:27;19.00;;;11.65;;
19919;SDS011;10122;50.074;19.920;2022-10-28T08:17:53;17.58;;;11.50;;
19919;SDS011;10122;50.074;19.920;2022-10-28T08:20:20;17.38;;;10.82;;
19919;SDS011;10122;50.074;19.920;2022-10-28T08:22:46;16.80;;;10.35;;
19919;SDS011;10122;50.074;19.920;2022-10-28T08:25:11;15.45;;;10.15;;
19919;SDS011;10122;50.074;19.920;2022-10-28T08:27:37;14.10;;;9.73;;
19919;SDS011;10122;50.074;19.920;2022-10-28T08:30:04;14.45;;;9.27;;
19919;SDS011;10122;50.074;19.920;2022-10-28T08:32:31;14.15;;;9.45;;
19919;SDS011;10122;50.074;19.920;2022-10-28T08:34:56;14.55;;;9.35;;
19919;SDS011;10122;50.074;19.920;2022-10-28T08:37:22;12.88;;;8.77;;
19919;SDS011;10122;50.074;19.920;2022-10-28T08:39:47;13.15;;;8.73;;
19919;SDS011;10122;50.074;19.920;2022-10-28T08:50:13;13.80;;;8.15;;
19919;SDS011;10122;50.074;19.920;2022-10-28T08:55:51;13.32;;;7.57;;
19919;SDS011;10122;50.074;19.920;2022-10-28T08:58:12;11.07;;;7.18;;
19919;SDS011;10122;50.074;19.920;2022-10-28T09:00:41;9.95;;;7.00;;
19919;SDS011;10122;50.074;19.920;2022-10-28T09:05:52;10.15;;;6.88;;
19919;SDS011;10122;50.074;19.920;2022-10-28T09:08:39;10.95;;;6.55;;
19919;SDS011;10122;50.074;19.920;2022-10-28T09:30:52;11.40;;;7.00;;
19919;SDS011;10122;50.074;19.920;2022-10-28T09:35:58;9.90;;;6.45;;
19919;SDS011;10122;50.074;19.920;2022-10-28T09:38:27;11.00;;;6.45;;
19919;SDS011;10122;50.074;19.920;2022-10-28T09:41:17;12.00;;;6.82;;
19919;SDS011;10122;50.074;19.920;2022-10-28T09:44:07;11.15;;;6.75;;
19919;SDS011;10122;50.074;19.920;2022-10-28T09:46:50;10.93;;;5.75;;
19919;SDS011;10122;50.074;19.920;2022-10-28T09:49:33;8.15;;;5.68;;
19919;SDS011;10122;50.074;19.920;2022-10-28T09:52:03;10.10;;;5.63;;
19919;SDS011;10122;50.074;19.920;2022-10-28T09:54:33;8.88;;;5.72;;
19919;SDS011;10122;50.074;19.920;2022-10-28T09:57:03;9.43;;;5.55;;
19919;SDS011;10122;50.074;19.920;2022-10-28T09:59:29;8.95;;;6.15;;
19919;SDS011;10122;50.074;19.920;2022-10-28T10:01:55;8.10;;;5.53;;
19919;SDS011;10122;50.074;19.920;2022-10-28T10:04:22;10.88;;;5.88;;
19919;SDS011;10122;50.074;19.920;2022-10-28T10:06:51;9.60;;;6.20;;
19919;SDS011;10122;50.074;19.920;2022-10-28T10:09:38;7.70;;;5.57;;
19919;SDS011;10122;50.074;19.920;2022-10-28T10:12:05;7.80;;;5.50;;
19919;SDS011;10122;50.074;19.920;2022-10-28T10:14:41;9.48;;;5.65;;
19919;SDS011;10122;50.074;19.920;2022-10-28T10:17:20;8.07;;;5.72;;
19919;SDS011;10122;50.074;19.920;2022-10-28T10:21:01;8.38;;;5.38;;
19919;SDS011;10122;50.074;19.920;2022-10-28T10:26:02;9.93;;;5.93;;
19919;SDS011;10122;50.074;19.920;2022-10-28T10:28:30;7.65;;;5.60;;
19919;SDS011;10122;50.074;19.920;2022-10-28T10:30:59;10.60;;;5.55;;
19919;SDS011;10122;50.074;19.920;2022-10-28T10:33:28;8.88;;;5.57;;
19919;SDS011;10122;50.074;19.920;2022-10-28T10:35:59;6.63;;;5.20;;
19919;SDS011;10122;50.074;19.920;2022-10-28T10:38:29;8.55;;;5.47;;
19919;SDS011;10122;50.074;19.920;2022-10-28T10:40:56;10.27;;;5.72;;
19919;SDS011;10122;50.074;19.920;2022-10-28T10:46:00;9.25;;;5.60;;
19919;SDS011;10122;50.074;19.920;2022-10-28T10:48:36;8.43;;;5.35;;
19919;SDS011;10122;50.074;19.920;2022-10-28T10:51:14;11.95;;;6.07;;
19919;SDS011;10122;50.074;19.920;2022-10-28T10:53:49;8.00;;;5.70;;
19919;SDS011;10122;50.074;19.920;2022-10-28T10:56:24;8.25;;;5.13;;
19919;SDS011;10122;50.074;19.920;2022-10-28T10:58:53;7.88;;;5.22;;
19919;SDS011;10122;50.074;19.920;2022-10-28T11:01:25;8.95;;;5.40;;
19919;SDS011;10122;50.074;19.920;2022-10-28T11:04:02;7.70;;;5.05;;
19919;SDS011;10122;50.074;19.920;2022-10-28T11:06:40;7.32;;;4.82;;
19919;SDS011;10122;50.074;19.920;2022-10-28T11:11:52;8.48;;;4.82;;
19919;SDS011;10122;50.074;19.920;2022-10-28T11:16:50;7.07;;;4.78;;
19919;SDS011;10122;50.074;19.920;2022-10-28T11:19:38;6.40;;;4.70;;
19919;SDS011;10122;50.074;19.920;2022-10-28T11:22:12;9.50;;;5.05;;
19919;SDS011;10122;50.074;19.920;2022-10-28T11:27:59;8.15;;;4.95;;
19919;SDS011;10122;50.074;19.920;2022-10-28T11:30:56;7.32;;;4.80;;
19919;SDS011;10122;50.074;19.920;2022-10-28T11:33:30;7.03;;;4.85;;
19919;SDS011;10122;50.074;19.920;2022-10-28T11:36:10;7.13;;;4.65;;
19919;SDS011;10122;50.074;19.920;2022-10-28T11:38:53;6.60;;;4.45;;
19919;SDS011;10122;50.074;19.920;2022-10-28T11:47:15;6.97;;;4.43;;
19919;SDS011;10122;50.074;19.920;2022-10-28T12:01:00;7.25;;;4.65;;
19919;SDS011;10122;50.074;19.920;2022-10-28T12:04:14;7.47;;;4.30;;
19919;SDS011;10122;50.074;19.920;2022-10-28T12:17:50;7.20;;;4.55;;
19919;SDS011;10122;50.074;19.920;2022-10-28T12:22:56;9.20;;;5.10;;
19919;SDS011;10122;50.074;19.920;2022-10-28T12:25:28;7.53;;;4.80;;
19919;SDS011;10122;50.074;19.920;2022-10-28T12:28:03;7.78;;;4.63;;
19919;SDS011;10122;50.074;19.920;2022-10-28T12:30:36;10.38;;;4.65;;
19919;SDS011;10122;50.074;19.920;2022-10-28T12:35:44;7.25;;;5.15;;
19919;SDS011;10122;50.074;19.920;2022-10-28T12:38:37;6.75;;;4.78;;
19919;SDS011;10122;50.074;19.920;2022-10-28T12:41:10;7.68;;;4.97;;
19919;SDS011;10122;50.074;19.920;2022-10-28T12:43:45;7.03;;;4.75;;
19919;SDS011;10122;50.074;19.920;2022-10-28T12:49:10;7.55;;;5.10;;
19919;SDS011;10122;50.074;19.920;2022-10-28T12:51:45;7.72;;;5.32;;
19919;SDS011;10122;50.074;19.920;2022-10-28T12:57:00;9.40;;;5.05;;
19919;SDS011;10122;50.074;19.920;2022-10-28T12:59:42;8.95;;;5.20;;
19919;SDS011;10122;50.074;19.920;2022-10-28T13:02:45;7.78;;;4.80;;
19919;SDS011;10122;50.074;19.920;2022-10-28T13:05:07;7.32;;;4.72;;
19919;SDS011;10122;50.074;19.920;2022-10-28T13:10:44;8.00;;;4.90;;
19919;SDS011;10122;50.074;19.920;2022-10-28T13:13:21;7.60;;;4.72;;
19919;SDS011;10122;50.074;19.920;2022-10-28T13:18:37;9.73;;;4.78;;
19919;SDS011;10122;50.074;19.920;2022-10-28T13:27:00;5.30;;;3.75;;
19919;SDS011;10122;50.074;19.920;2022-10-28T13:29:28;7.25;;;4.25;;
19919;SDS011;10122;50.074;19.920;2022-10-28T13:31:57;10.23;;;4.75;;
19919;SDS011;10122;50.074;19.920;2022-10-28T13:34:30;6.05;;;4.13;;
19919;SDS011;10122;50.074;19.920;2022-10-28T13:36:59;6.00;;;4.45;;
19919;SDS011;10122;50.074;19.920;2022-10-28T13:55:24;7.60;;;4.57;;
19919;SDS011;10122;50.074;19.920;2022-10-28T13:57:58;7.60;;;4.80;;
19919;SDS011;10122;50.074;19.920;2022-10-28T14:02:54;8.75;;;5.07;;
19919;SDS011;10122;50.074;19.920;2022-10-28T14:08:03;8.48;;;5.30;;
19919;SDS011;10122;50.074;19.920;2022-10-28T14:10:32;7.35;;;4.78;;
19919;SDS011;10122;50.074;19.920;2022-10-28T14:13:03;8.43;;;4.70;;
19919;SDS011;10122;50.074;19.920;2022-10-28T14:15:41;7.93;;;4.63;;
19919;SDS011;10122;50.074;19.920;2022-10-28T14:49:27;8.25;;;5.20;;
19919;SDS011;10122;50.074;19.920;2022-10-28T14:51:56;7.45;;;5.10;;
19919;SDS011;10122;50.074;19.920;2022-10-28T14:57:02;7.95;;;5.35;;
19919;SDS011;10122;50.074;19.920;2022-10-28T14:59:44;8.85;;;5.68;;
19919;SDS011;10122;50.074;19.920;2022-10-28T15:02:14;7.30;;;5.30;;
19919;SDS011;10122;50.074;19.920;2022-10-28T15:04:41;8.60;;;5.60;;
19919;SDS011;10122;50.074;19.920;2022-10-28T15:07:12;8.82;;;5.95;;
19919;SDS011;10122;50.074;19.920;2022-10-28T15:09:40;8.88;;;5.57;;
19919;SDS011;10122;50.074;19.920;2022-10-28T15:12:10;8.65;;;5.45;;
19919;SDS011;10122;50.074;19.920;2022-10-28T15:14:47;9.30;;;5.20;;
19919;SDS011;10122;50.074;19.920;2022-10-28T15:19:49;8.32;;;5.45;;
19919;SDS011;10122;50.074;19.920;2022-10-28T15:22:20;8.15;;;5.50;;
19919;SDS011;10122;50.074;19.920;2022-10-28T15:27:26;9.70;;;5.80;;
19919;SDS011;10122;50.074;19.920;2022-10-28T15:29:53;9.00;;;5.72;;
19919;SDS011;10122;50.074;19.920;2022-10-28T15:34:45;8.90;;;5.85;;
19919;SDS011;10122;50.074;19.920;2022-10-28T15:37:16;9.98;;;6.07;;
19919;SDS011;10122;50.074;19.920;2022-10-28T15:39:42;8.57;;;6.03;;
19919;SDS011;10122;50.074;19.920;2022-10-28T15:44:56;8.98;;;6.30;;
19919;SDS011;10122;50.074;19.920;2022-10-28T15:52:30;10.77;;;7.23;;
19919;SDS011;10122;50.074;19.920;2022-10-28T15:55:40;9.68;;;6.85;;
19919;SDS011;10122;50.074;19.920;2022-10-28T15:57:59;9.65;;;6.35;;
19919;SDS011;10122;50.074;19.920;2022-10-28T16:03:00;11.85;;;6.88;;
19919;SDS011;10122;50.074;19.920;2022-10-28T16:10:30;11.32;;;6.43;;
19919;SDS011;10122;50.074;19.920;2022-10-28T16:13:00;9.73;;;6.78;;
19919;SDS011;10122;50.074;19.920;2022-10-28T16:15:28;9.95;;;6.55;;
19919;SDS011;10122;50.074;19.920;2022-10-28T16:17:54;9.75;;;6.50;;
19919;SDS011;10122;50.074;19.920;2022-10-28T16:20:21;9.90;;;6.45;;
19919;SDS011;10122;50.074;19.920;2022-10-28T16:22:51;10.55;;;7.15;;
19919;SDS011;10122;50.074;19.920;2022-10-28T16:25:21;12.90;;;7.53;;
19919;SDS011;10122;50.074;19.920;2022-10-28T16:27:47;9.73;;;6.85;;
19919;SDS011;10122;50.074;19.920;2022-10-28T16:30:13;12.20;;;7.38;;
19919;SDS011;10122;50.074;19.920;2022-10-28T16:32:40;13.15;;;8.02;;
19919;SDS011;10122;50.074;19.920;2022-10-28T16:35:13;14.60;;;8.43;;
19919;SDS011;10122;50.074;19.920;2022-10-28T16:37:45;12.18;;;8.02;;
19919;SDS011;10122;50.074;19.920;2022-10-28T16:40:12;12.73;;;8.13;;
19919;SDS011;10122;50.074;19.920;2022-10-28T16:42:38;14.43;;;8.45;;
19919;SDS011;10122;50.074;19.920;2022-10-28T16:45:09;14.98;;;8.98;;
19919;SDS011;10122;50.074;19.920;2022-10-28T16:47:38;14.20;;;8.45;;
19919;SDS011;10122;50.074;19.920;2022-10-28T16:50:04;14.27;;;9.25;;
19919;SDS011;10122;50.074;19.920;2022-10-28T16:52:30;12.77;;;8.60;;
19919;SDS011;10122;50.074;19.920;2022-10-28T16:54:56;14.63;;;8.45;;
19919;SDS011;10122;50.074;19.920;2022-10-28T16:57:22;11.98;;;8.18;;
19919;SDS011;10122;50.074;19.920;2022-10-28T16:59:49;16.00;;;9.32;;
19919;SDS011;10122;50.074;19.920;2022-10-28T17:04:43;13.82;;;8.25;;
19919;SDS011;10122;50.074;19.920;2022-10-28T17:07:09;14.38;;;8.52;;
19919;SDS011;10122;50.074;19.920;2022-10-28T17:09:39;15.10;;;8.80;;
19919;SDS011;10122;50.074;19.920;2022-10-28T17:12:05;14.80;;;8.65;;
19919;SDS011;10122;50.074;19.920;2022-10-28T17:14:31;14.15;;;8.10;;
19919;SDS011;10122;50.074;19.920;2022-10-28T17:16:56;14.00;;;9.50;;
19919;SDS011;10122;50.074;19.920;2022-10-28T17:19:22;14.18;;;9.30;;
19919;SDS011;10122;50.074;19.920;2022-10-28T17:21:48;16.80;;;9.50;;
19919;SDS011;10122;50.074;19.920;2022-10-28T17:24:14;14.55;;;9.38;;
19919;SDS011;10122;50.074;19.920;2022-10-28T17:26:39;16.75;;;9.90;;
19919;SDS011;10122;50.074;19.920;2022-10-28T17:29:08;15.63;;;9.70;;
19919;SDS011;10122;50.074;19.920;2022-10-28T17:31:34;14.57;;;9.18;;
19919;SDS011;10122;50.074;19.920;2022-10-28T17:33:59;17.25;;;9.90;;
19919;SDS011;10122;50.074;19.920;2022-10-28T17:36:25;14.20;;;9.30;;
19919;SDS011;10122;50.074;19.920;2022-10-28T17:38:50;15.73;;;9.35;;
19919;SDS011;10122;50.074;19.920;2022-10-28T17:41:16;16.40;;;9.98;;
19919;SDS011;10122;50.074;19.920;2022-10-28T17:43:43;15.70;;;9.43;;
19919;SDS011;10122;50.074;19.920;2022-10-28T17:46:08;16.60;;;9.73;;
19919;SDS011;10122;50.074;19.920;2022-10-28T17:48:34;16.15;;;9.40;;
19919;SDS011;10122;50.074;19.920;2022-10-28T17:51:00;18.05;;;9.57;;
19919;SDS011;10122;50.074;19.920;2022-10-28T17:53:26;16.20;;;9.85;;
19919;SDS011;10122;50.074;19.920;2022-10-28T17:55:55;17.60;;;9.55;;
19919;SDS011;10122;50.074;19.920;2022-10-28T17:58:25;15.65;;;10.38;;
19919;SDS011;10122;50.074;19.920;2022-10-28T18:00:55;16.40;;;9.50;;
19919;SDS011;10122;50.074;19.920;2022-10-28T18:03:21;15.52;;;9.98;;
19919;SDS011;10122;50.074;19.920;2022-10-28T18:05:47;16.20;;;9.57;;
19919;SDS011;10122;50.074;19.920;2022-10-28T18:08:12;17.73;;;10.73;;
19919;SDS011;10122;50.074;19.920;2022-10-28T18:10:38;16.00;;;10.10;;
19919;SDS011;10122;50.074;19.920;2022-10-28T18:13:03;17.42;;;10.15;;
19919;SDS011;10122;50.074;19.920;2022-10-28T18:15:29;17.25;;;10.68;;